Belgium, New York
Current Conditions -  °F | °C
As of 7:54 PM on Tuesday 27 Jan 2015 (Local Time) from KFZY Reporting Station
Clear Clear  
Wind Chill: -16°   Ceiling: Unl
Heat Index: -10°   Visibility: 10mi
Dew Point: -20°   Wind: 8mph
Humidity: 45%   Direction: 350°N
Pressure: 30.04"   Gusts: NA
Location:  43.1825°N, 76.3664°W
Report Text: KFZY 280054Z AUTO 35007KT 10SM CLR M10/M20 A3004 RMK AO2 SLP184 T11001200
Loading
Personal Weather Stations






























Interactive Weather Map New forecast layout! Learn more

10-Day Weather Forecast

Advertisements
Track Severe Weather on mobile